Time;durP1;ratioP1;P1;durP2;ratioP2;P2;SDS_P1;SDS_P2;PMS_P1;PMS_P2;Temp;Humidity;BMP_temperature;BMP_pressure;BME280_temperature;BME280_humidity;BME280_pressure;Samples;Min_cycle;Max_cycle;Signal;HPM_P1;HPM_P2
2023/04/09 00:01:54;;;;;;;65.53;45.90;;;9.80;79.40;;;;;;5075740;28;20079;-78
2023/04/09 00:04:21;;;;;;;72.20;48.25;;;9.80;79.40;;;;;;5065045;28;20040;-78
2023/04/09 00:06:47;;;;;;;74.63;50.90;;;9.80;79.30;;;;;;5059818;28;20036;-78
2023/04/09 00:09:12;;;;;;;74.70;50.08;;;9.80;79.20;;;;;;5078792;28;20547;-78
2023/04/09 00:11:38;;;;;;;73.72;50.13;;;9.80;79.10;;;;;;5059375;28;20123;-78
2023/04/09 00:14:04;;;;;;;77.72;50.88;;;9.70;79.00;;;;;;5059770;28;20127;-78
2023/04/09 00:16:30;;;;;;;75.93;50.30;;;9.70;79.00;;;;;;5059050;28;20522;-78
2023/04/09 00:18:55;;;;;;;73.20;48.53;;;9.70;79.20;;;;;;5026430;28;20113;-78
2023/04/09 00:21:21;;;;;;;74.05;47.35;;;9.60;79.30;;;;;;5042566;28;20063;-78
2023/04/09 00:23:47;;;;;;;71.45;46.55;;;9.60;79.30;;;;;;5018079;28;20383;-78
2023/04/09 00:26:13;;;;;;;71.20;47.85;;;9.60;79.40;;;;;;5075641;28;20047;-78
2023/04/09 00:28:38;;;;;;;70.40;46.70;;;9.60;79.30;;;;;;5059829;28;20062;-78
2023/04/09 00:31:04;;;;;;;74.25;46.88;;;9.50;79.30;;;;;;5059475;28;20044;-78
2023/04/09 00:33:30;;;;;;;67.68;46.05;;;9.50;79.30;;;;;;5055673;28;20036;-78
2023/04/09 00:35:56;;;;;;;73.18;48.88;;;9.50;79.40;;;;;;5022666;28;20059;-78
2023/04/09 00:38:22;;;;;;;70.57;47.53;;;9.40;79.50;;;;;;5055784;28;20091;-78
2023/04/09 00:40:49;;;;;;;68.07;46.50;;;9.40;79.60;;;;;;5055755;28;20041;-78
2023/04/09 00:43:16;;;;;;;73.15;47.28;;;9.40;79.70;;;;;;5044132;28;20082;-78
2023/04/09 00:45:43;;;;;;;70.47;47.40;;;9.40;79.70;;;;;;5076278;28;20040;-79
2023/04/09 00:48:12;;;;;;;70.05;48.33;;;9.30;79.80;;;;;;5092622;28;20036;-79
2023/04/09 00:50:38;;;;;;;72.75;47.97;;;9.30;80.00;;;;;;5071195;28;20040;-78
2023/04/09 00:53:04;;;;;;;71.75;48.45;;;9.30;80.10;;;;;;5075385;28;20043;-78
2023/04/09 00:55:30;;;;;;;71.22;46.05;;;9.30;80.20;;;;;;5075466;28;20435;-78
2023/04/09 00:57:56;;;;;;;75.28;47.38;;;9.30;80.30;;;;;;5075815;28;20100;-78
2023/04/09 01:00:22;;;;;;;75.18;48.75;;;9.30;80.40;;;;;;5058836;28;20396;-78
2023/04/09 01:02:50;;;;;;;67.20;46.05;;;9.30;80.40;;;;;;5042377;28;20165;-78
2023/04/09 01:05:16;;;;;;;69.13;46.67;;;9.30;80.50;;;;;;5058666;28;20055;-78
2023/04/09 01:08:06;;;;;;;68.70;46.20;;;9.30;81.00;;;;;;5058770;28;20048;-78
2023/04/09 01:11:07;;;;;;;70.50;48.15;;;9.30;80.60;;;;;;5075715;28;20106;-78
2023/04/09 01:13:44;;;;;;;71.55;47.88;;;9.30;80.70;;;;;;5041232;28;20056;-78
2023/04/09 01:16:12;;;;;;;69.53;45.25;;;9.30;80.70;;;;;;5091826;28;20143;-79
2023/04/09 01:18:41;;;;;;;74.80;48.03;;;9.20;80.70;;;;;;5058954;28;20154;-79
2023/04/09 01:21:13;;;;;;;70.18;47.15;;;9.20;80.80;;;;;;5092202;28;20032;-78
2023/04/09 01:23:45;;;;;;;68.35;45.97;;;9.20;81.00;;;;;;5075602;28;20123;-79
2023/04/09 01:26:35;;;;;;;71.35;47.13;;;9.20;81.00;;;;;;5075142;28;20179;-79
2023/04/09 01:29:04;;;;;;;69.25;45.35;;;9.20;81.00;;;;;;5071899;28;20049;-79
2023/04/09 01:31:35;;;;;;;68.13;46.58;;;9.20;81.10;;;;;;5038960;28;20044;-79
2023/04/09 01:34:02;;;;;;;72.32;46.72;;;9.20;81.20;;;;;;5055083;28;20044;-79
2023/04/09 01:36:31;;;;;;;70.63;45.58;;;9.20;81.20;;;;;;5072658;28;20073;-79
2023/04/09 01:38:58;;;;;;;68.35;44.70;;;9.10;81.30;;;;;;5042157;28;20027;-79
2023/04/09 01:41:25;;;;;;;69.32;46.97;;;9.10;81.30;;;;;;5053258;28;20158;-79
2023/04/09 01:43:52;;;;;;;73.32;46.83;;;9.10;81.40;;;;;;5079306;28;20036;-79
2023/04/09 01:46:20;;;;;;;70.28;46.20;;;9.10;81.50;;;;;;5096031;28;20047;-79
2023/04/09 01:48:46;;;;;;;69.90;47.13;;;9.10;81.70;;;;;;5076823;28;20063;-79
2023/04/09 01:51:13;;;;;;;70.28;45.65;;;9.10;81.80;;;;;;5042207;28;20044;-79
2023/04/09 01:53:39;;;;;;;69.53;44.40;;;9.10;81.90;;;;;;5025867;28;20072;-79
2023/04/09 01:56:06;;;;;;;66.03;43.90;;;9.00;81.90;;;;;;5059039;28;20056;-79
2023/04/09 01:58:33;;;;;;;73.85;46.13;;;9.00;81.90;;;;;;5069146;28;20039;-79
2023/04/09 02:01:10;;;;;;;72.20;44.25;;;9.00;82.10;;;;;;5078772;28;20115;-79
2023/04/09 02:03:50;;;;;;;69.25;46.15;;;9.00;82.10;;;;;;5078607;28;20119;-79
2023/04/09 02:06:40;;;;;;;69.50;44.67;;;9.00;82.20;;;;;;5041994;28;20032;-79
2023/04/09 02:09:07;;;;;;;71.28;45.80;;;9.00;82.30;;;;;;5042198;28;20048;-79
2023/04/09 02:11:36;;;;;;;64.90;40.90;;;8.90;82.30;;;;;;5058555;28;20045;-79
2023/04/09 02:14:07;;;;;;;65.40;41.78;;;9.00;82.40;;;;;;5087951;28;20560;-78
2023/04/09 02:16:33;;;;;;;62.65;39.28;;;8.90;82.20;;;;;;5078690;28;20063;-79
2023/04/09 02:19:00;;;;;;;61.08;39.10;;;8.90;82.20;;;;;;5078475;28;20432;-79
2023/04/09 02:21:27;;;;;;;55.70;36.05;;;8.90;82.20;;;;;;5045747;28;20122;-79
2023/04/09 02:23:54;;;;;;;50.88;33.13;;;8.90;82.30;;;;;;5067082;28;20032;-79
2023/04/09 02:26:20;;;;;;;49.22;30.50;;;8.90;82.20;;;;;;5061545;28;20036;-79
2023/04/09 02:28:46;;;;;;;49.00;32.20;;;8.90;82.20;;;;;;5061631;28;20066;-79
2023/04/09 02:31:12;;;;;;;49.08;30.60;;;8.90;82.30;;;;;;5061427;28;20039;-79
2023/04/09 02:33:38;;;;;;;48.88;31.00;;;8.90;82.30;;;;;;5044818;28;20040;-79
2023/04/09 02:36:04;;;;;;;49.60;32.58;;;8.90;82.30;;;;;;5061406;28;20051;-79
2023/04/09 02:38:30;;;;;;;51.33;33.33;;;8.90;82.40;;;;;;5061438;28;20044;-79
2023/04/09 02:40:56;;;;;;;51.03;33.05;;;8.90;82.40;;;;;;5061228;28;20036;-79
2023/04/09 02:43:22;;;;;;;54.33;34.28;;;8.90;82.40;;;;;;5078001;28;20036;-79
2023/04/09 02:45:47;;;;;;;48.97;31.45;;;8.80;82.30;;;;;;5044813;28;20036;-79
2023/04/09 02:48:13;;;;;;;48.60;32.22;;;8.80;82.40;;;;;;5073873;28;20037;-79
2023/04/09 02:50:39;;;;;;;51.20;33.28;;;8.80;82.50;;;;;;5057747;28;20055;-79
2023/04/09 02:53:05;;;;;;;46.50;29.58;;;8.80;82.50;;;;;;5024779;28;20043;-79
2023/04/09 02:55:31;;;;;;;45.47;29.30;;;8.80;82.60;;;;;;5057345;28;20080;-79
2023/04/09 02:57:56;;;;;;;48.28;32.58;;;8.80;82.70;;;;;;5059612;28;20043;-79
2023/04/09 03:00:22;;;;;;;47.22;30.27;;;8.80;82.80;;;;;;5044063;28;20043;-79
2023/04/09 03:02:48;;;;;;;47.75;31.98;;;8.80;82.70;;;;;;5060759;28;20089;-79
2023/04/09 03:05:13;;;;;;;48.50;30.20;;;8.80;82.80;;;;;;5061121;28;20097;-79
2023/04/09 03:07:39;;;;;;;47.47;29.90;;;8.80;82.80;;;;;;5060893;28;20483;-79
2023/04/09 03:10:05;;;;;;;45.67;29.85;;;8.70;82.80;;;;;;5077750;28;20126;-79
2023/04/09 03:12:31;;;;;;;50.10;31.73;;;8.70;82.90;;;;;;5060783;28;20471;-79
2023/04/09 03:14:57;;;;;;;47.25;31.35;;;8.70;83.00;;;;;;5077636;28;20097;-79
2023/04/09 03:17:25;;;;;;;46.63;30.92;;;8.70;83.10;;;;;;5060563;28;20515;-79
2023/04/09 03:19:52;;;;;;;47.67;29.83;;;8.70;83.10;;;;;;5066296;28;20040;-79
2023/04/09 03:22:17;;;;;;;49.08;30.50;;;8.70;83.20;;;;;;5040713;28;20071;-79
2023/04/09 03:24:43;;;;;;;46.28;30.58;;;8.70;83.20;;;;;;5055206;28;20060;-79
2023/04/09 03:27:09;;;;;;;45.63;28.92;;;8.70;83.20;;;;;;5094507;28;20496;-79
2023/04/09 03:29:35;;;;;;;45.40;28.55;;;8.70;83.30;;;;;;5071525;28;20043;-79
2023/04/09 03:32:00;;;;;;;45.22;29.85;;;8.70;83.40;;;;;;5077269;28;20039;-79
2023/04/09 03:34:26;;;;;;;47.47;30.30;;;8.60;83.30;;;;;;5043814;28;20071;-79
2023/04/09 03:36:52;;;;;;;47.40;30.65;;;8.70;83.50;;;;;;5043641;28;20116;-79
2023/04/09 03:39:17;;;;;;;44.47;29.13;;;8.60;83.60;;;;;;5060030;28;20040;-79
2023/04/09 03:41:43;;;;;;;46.67;29.85;;;8.60;83.60;;;;;;5076946;28;20059;-79
2023/04/09 03:44:09;;;;;;;48.08;30.30;;;8.60;83.70;;;;;;5076872;28;20040;-79
2023/04/09 03:46:35;;;;;;;47.80;30.80;;;8.60;83.80;;;;;;5060267;28;20075;-79
2023/04/09 03:49:00;;;;;;;46.00;29.27;;;8.60;83.80;;;;;;5065690;28;20075;-79
2023/04/09 03:51:26;;;;;;;48.38;30.85;;;8.60;83.90;;;;;;5043395;28;20438;-79
2023/04/09 03:53:52;;;;;;;46.13;30.42;;;8.60;83.90;;;;;;5026757;28;20044;-79
2023/04/09 03:56:17;;;;;;;48.13;30.73;;;8.60;84.00;;;;;;5026800;28;20044;-79
2023/04/09 03:58:43;;;;;;;48.53;30.98;;;8.60;84.00;;;;;;5043336;28;20502;-79
2023/04/09 04:01:09;;;;;;;47.40;30.88;;;8.60;84.10;;;;;;5042870;28;20120;-79
2023/04/09 04:03:34;;;;;;;51.33;32.00;;;8.60;84.10;;;;;;5059721;28;20068;-79
2023/04/09 04:06:01;;;;;;;53.50;32.92;;;8.60;84.10;;;;;;5060104;28;20047;-79
2023/04/09 04:08:27;;;;;;;59.22;35.55;;;8.60;84.10;;;;;;5060018;28;20372;-79
2023/04/09 04:10:53;;;;;;;55.30;34.40;;;8.50;84.00;;;;;;5076584;28;20119;-79
2023/04/09 04:13:19;;;;;;;57.13;33.80;;;8.60;84.00;;;;;;5059432;28;20040;-79
2023/04/09 04:15:44;;;;;;;52.60;33.65;;;8.60;84.00;;;;;;5072023;28;20056;-79
2023/04/09 04:18:10;;;;;;;51.22;32.10;;;8.60;84.00;;;;;;5029204;28;20040;-79
2023/04/09 04:20:37;;;;;;;49.40;32.22;;;8.60;84.00;;;;;;5043023;28;20044;-79
2023/04/09 04:23:03;;;;;;;50.78;33.45;;;8.50;83.90;;;;;;5034893;28;20156;-79
2023/04/09 04:25:29;;;;;;;49.83;31.45;;;8.60;84.00;;;;;;5072412;28;20483;-79
2023/04/09 04:27:55;;;;;;;51.70;33.15;;;8.60;83.90;;;;;;5039733;28;20059;-79
2023/04/09 04:30:21;;;;;;;53.15;34.35;;;8.60;84.40;;;;;;5039218;28;20040;-79
2023/04/09 04:32:47;;;;;;;49.58;32.55;;;8.60;83.90;;;;;;5023486;28;20123;-79
2023/04/09 04:35:13;;;;;;;48.92;31.60;;;8.60;84.00;;;;;;5042822;28;20040;-79
2023/04/09 04:37:39;;;;;;;56.40;33.97;;;8.60;84.00;;;;;;5075762;28;20603;-79
2023/04/09 04:40:09;;;;;;;46.70;30.05;;;8.60;83.90;;;;;;5059555;28;20380;-79
2023/04/09 04:42:34;;;;;;;51.55;32.17;;;8.60;84.00;;;;;;5059451;28;20036;-79
2023/04/09 04:45:00;;;;;;;47.92;31.88;;;8.60;84.10;;;;;;5059214;28;20123;-80
2023/04/09 04:47:26;;;;;;;50.72;32.83;;;8.60;84.10;;;;;;5075498;28;20040;-79
2023/04/09 04:49:52;;;;;;;49.58;32.75;;;8.60;84.10;;;;;;5075658;28;20101;-79
2023/04/09 04:52:18;;;;;;;50.13;32.50;;;8.60;84.10;;;;;;5059331;28;20035;-80
2023/04/09 04:54:44;;;;;;;54.70;34.10;;;8.60;84.10;;;;;;5058891;28;20513;-79
2023/04/09 04:57:09;;;;;;;51.08;33.83;;;8.60;84.20;;;;;;5071958;28;20041;-79
2023/04/09 04:59:39;;;;;;;48.65;31.80;;;8.60;84.20;;;;;;5022711;28;20036;-79
2023/04/09 05:02:08;;;;;;;46.15;31.48;;;8.60;84.20;;;;;;5039151;28;20036;-79
2023/04/09 05:04:34;;;;;;;49.40;33.22;;;8.60;84.20;;;;;;5066415;28;20079;-79
2023/04/09 05:07:00;;;;;;;47.30;31.20;;;8.60;84.10;;;;;;5058727;28;20076;-79
2023/04/09 05:09:25;;;;;;;50.15;33.80;;;8.60;83.90;;;;;;5075464;28;20044;-79
2023/04/09 05:11:51;;;;;;;47.03;33.15;;;8.60;83.80;;;;;;5075551;28;20101;-79
2023/04/09 05:14:17;;;;;;;46.22;30.25;;;8.60;83.70;;;;;;5042095;28;20549;-79
2023/04/09 05:16:43;;;;;;;54.67;33.72;;;8.60;83.50;;;;;;5041820;28;20557;-79
2023/04/09 05:19:09;;;;;;;45.55;29.40;;;8.60;83.50;;;;;;5075001;28;20036;-79
2023/04/09 05:21:34;;;;;;;48.30;32.53;;;8.60;83.50;;;;;;5058572;28;20040;-79
2023/04/09 05:24:00;;;;;;;47.25;31.95;;;8.60;83.50;;;;;;5058493;28;20078;-79
2023/04/09 05:26:26;;;;;;;45.20;29.58;;;8.60;83.50;;;;;;5075185;28;20126;-79
2023/04/09 05:28:52;;;;;;;43.90;29.23;;;8.50;83.40;;;;;;5075238;28;20051;-79
2023/04/09 05:31:18;;;;;;;47.20;30.83;;;8.60;83.40;;;;;;5042084;28;20047;-79
2023/04/09 05:33:43;;;;;;;44.67;30.15;;;8.50;83.10;;;;;;5058781;28;20063;-80
2023/04/09 05:36:15;;;;;;;49.00;30.27;;;8.50;83.00;;;;;;5058340;28;20048;-79
2023/04/09 05:38:41;;;;;;;46.90;31.25;;;8.50;83.10;;;;;;5058384;28;20040;-79
2023/04/09 05:41:07;;;;;;;54.08;32.63;;;8.50;83.00;;;;;;5062243;28;20036;-79
2023/04/09 05:43:32;;;;;;;48.80;31.70;;;8.50;82.90;;;;;;5075162;28;20047;-79
2023/04/09 05:45:58;;;;;;;47.33;31.27;;;8.50;82.90;;;;;;5075193;28;20127;-79
2023/04/09 05:48:24;;;;;;;52.33;32.80;;;8.50;82.90;;;;;;5056240;28;20404;-79
2023/04/09 05:50:51;;;;;;;47.50;30.92;;;8.50;83.00;;;;;;5022843;28;20052;-81
2023/04/09 05:53:20;;;;;;;46.25;30.65;;;8.50;83.00;;;;;;5054962;28;20123;-79
2023/04/09 05:55:48;;;;;;;46.97;32.00;;;8.50;83.10;;;;;;5063416;28;20044;-79
2023/04/09 05:58:14;;;;;;;49.40;33.20;;;8.50;83.10;;;;;;5056712;28;20162;-79
2023/04/09 06:00:41;;;;;;;48.72;31.20;;;8.50;83.00;;;;;;5038440;28;20043;-79
2023/04/09 06:03:08;;;;;;;51.22;34.05;;;8.60;82.90;;;;;;5038677;28;20499;-79
2023/04/09 06:05:33;;;;;;;49.35;32.03;;;8.60;82.90;;;;;;5038317;28;20047;-79
2023/04/09 06:07:59;;;;;;;46.10;31.08;;;8.60;83.30;;;;;;5022133;28;20040;-79
2023/04/09 06:10:25;;;;;;;50.40;32.65;;;8.60;82.90;;;;;;5022629;28;20442;-79
2023/04/09 06:12:51;;;;;;;49.20;32.35;;;8.60;82.80;;;;;;5054502;28;20517;-79
2023/04/09 06:15:17;;;;;;;48.88;32.13;;;8.60;82.80;;;;;;5037889;28;20029;-79
2023/04/09 06:17:43;;;;;;;48.28;32.42;;;8.60;82.90;;;;;;5049255;28;20048;-79
2023/04/09 06:20:09;;;;;;;48.83;31.35;;;8.60;82.90;;;;;;5066674;28;20043;-79
2023/04/09 06:22:35;;;;;;;52.03;33.95;;;8.60;82.90;;;;;;5058058;28;20039;-79
2023/04/09 06:25:01;;;;;;;51.60;32.47;;;8.60;83.00;;;;;;5072947;28;20037;-79
2023/04/09 06:27:26;;;;;;;51.58;33.10;;;8.60;83.00;;;;;;5069994;28;20047;-79
2023/04/09 06:29:52;;;;;;;46.58;30.95;;;8.60;82.90;;;;;;5061353;28;20044;-80
2023/04/09 06:32:18;;;;;;;47.55;31.27;;;8.60;83.00;;;;;;5061434;28;20067;-80
2023/04/09 06:34:44;;;;;;;47.15;30.95;;;8.60;82.70;;;;;;5061560;28;20084;-79
2023/04/09 06:37:09;;;;;;;44.63;29.48;;;8.60;82.40;;;;;;5077852;28;20422;-79
2023/04/09 06:39:35;;;;;;;41.92;28.55;;;8.60;82.20;;;;;;5095024;28;20479;-79
2023/04/09 06:42:02;;;;;;;44.72;30.52;;;8.60;82.10;;;;;;5094802;28;20116;-79
2023/04/09 06:44:29;;;;;;;42.28;29.80;;;8.60;82.00;;;;;;5045177;28;20063;-79
2023/04/09 06:46:55;;;;;;;43.78;29.85;;;8.60;82.00;;;;;;5060194;28;20036;-79
2023/04/09 06:49:21;;;;;;;42.63;28.83;;;8.60;81.90;;;;;;5077664;28;20043;-79
2023/04/09 06:51:46;;;;;;;42.40;28.65;;;8.60;81.70;;;;;;5078044;28;20040;-79
2023/04/09 06:54:12;;;;;;;43.35;29.80;;;8.70;81.50;;;;;;5077829;28;20175;-80
2023/04/09 06:56:38;;;;;;;39.45;27.67;;;8.70;81.40;;;;;;5094088;28;20447;-80
2023/04/09 06:59:04;;;;;;;41.47;29.50;;;8.70;81.30;;;;;;5060835;28;20040;-80
2023/04/09 07:01:30;;;;;;;40.05;27.25;;;8.70;81.00;;;;;;5044300;28;20127;-80
2023/04/09 07:03:56;;;;;;;41.75;29.13;;;8.70;80.80;;;;;;5094589;28;20118;-80
2023/04/09 07:06:22;;;;;;;40.15;28.60;;;8.70;80.40;;;;;;5060936;28;20693;-80
2023/04/09 07:08:47;;;;;;;41.05;29.15;;;8.70;80.30;;;;;;5044303;28;20048;-80
2023/04/09 07:11:15;;;;;;;38.47;26.92;;;8.70;80.20;;;;;;5063860;28;20051;-80
2023/04/09 07:13:41;;;;;;;38.75;28.30;;;8.70;80.10;;;;;;5035611;28;20039;-80
2023/04/09 07:16:07;;;;;;;39.42;28.42;;;8.70;79.90;;;;;;5061910;28;20060;-79
2023/04/09 07:18:33;;;;;;;40.13;28.00;;;8.80;79.80;;;;;;5049003;28;20044;-80
2023/04/09 07:20:59;;;;;;;42.40;29.85;;;8.80;79.70;;;;;;5061773;28;20037;-79
2023/04/09 07:23:24;;;;;;;38.53;27.17;;;8.80;79.70;;;;;;5059516;28;20368;-79
2023/04/09 07:25:50;;;;;;;37.92;28.38;;;8.80;79.70;;;;;;5044037;28;20032;-80
2023/04/09 07:28:16;;;;;;;40.60;28.38;;;8.80;79.50;;;;;;5043504;28;20032;-80
2023/04/09 07:30:42;;;;;;;42.22;29.67;;;8.90;79.50;;;;;;5044552;28;20044;-80
2023/04/09 07:33:08;;;;;;;36.42;26.83;;;8.90;79.30;;;;;;5072017;28;21119;-80
2023/04/09 07:35:33;;;;;;;38.80;28.17;;;8.90;79.30;;;;;;5062057;28;20137;-80
2023/04/09 07:38:00;;;;;;;41.15;29.20;;;9.00;79.10;;;;;;5074848;28;20051;-82
2023/04/09 07:40:26;;;;;;;46.10;29.70;;;9.00;79.00;;;;;;5048659;28;20039;-80
2023/04/09 07:42:52;;;;;;;44.22;30.20;;;9.00;79.10;;;;;;5060670;28;20032;-80
2023/04/09 07:45:18;;;;;;;43.00;30.80;;;9.10;79.20;;;;;;5032571;28;20376;-80
2023/04/09 07:47:44;;;;;;;43.30;30.98;;;9.10;79.10;;;;;;5060286;28;20054;-80
2023/04/09 07:50:11;;;;;;;42.83;29.63;;;9.10;79.10;;;;;;5031636;28;20036;-80
2023/04/09 07:52:36;;;;;;;44.90;31.08;;;9.10;79.10;;;;;;5058084;28;20043;-80
2023/04/09 07:55:02;;;;;;;44.03;31.10;;;9.10;79.10;;;;;;5077275;28;20040;-80
2023/04/09 07:57:31;;;;;;;40.22;27.55;;;9.10;79.00;;;;;;5045740;28;20393;-80
2023/04/09 07:59:57;;;;;;;42.58;28.98;;;9.10;78.70;;;;;;5077205;28;20075;-80
2023/04/09 08:02:23;;;;;;;39.17;27.90;;;9.20;78.60;;;;;;5059697;28;20075;-80
2023/04/09 08:04:48;;;;;;;41.90;29.35;;;9.20;78.20;;;;;;5059043;28;20151;-80
2023/04/09 08:07:14;;;;;;;38.67;26.60;;;9.20;78.00;;;;;;5075900;28;20224;-80
2023/04/09 08:09:40;;;;;;;38.53;26.77;;;9.20;77.80;;;;;;5060846;28;20479;-80
2023/04/09 08:12:06;;;;;;;37.70;25.75;;;9.20;77.50;;;;;;5076845;28;20047;-80
2023/04/09 08:14:32;;;;;;;41.40;28.67;;;9.20;77.40;;;;;;5046782;28;20457;-80
2023/04/09 08:17:00;;;;;;;39.25;28.25;;;9.20;77.30;;;;;;5032739;28;20368;-79
2023/04/09 08:19:26;;;;;;;41.80;28.95;;;9.20;77.30;;;;;;5032825;28;20047;-80
2023/04/09 08:21:51;;;;;;;38.75;28.13;;;9.20;77.20;;;;;;5040579;28;20028;-80
2023/04/09 08:24:17;;;;;;;39.17;27.73;;;9.20;77.40;;;;;;5045912;28;20415;-80
2023/04/09 08:26:43;;;;;;;38.47;28.20;;;9.20;77.30;;;;;;5046492;28;21024;-80
2023/04/09 08:29:11;;;;;;;38.88;28.60;;;9.20;77.30;;;;;;5050811;28;20040;-79
2023/04/09 08:31:37;;;;;;;41.97;28.92;;;9.20;77.30;;;;;;5051727;28;20056;-80
2023/04/09 08:34:03;;;;;;;43.55;30.65;;;9.20;77.30;;;;;;5057983;28;20104;-80
2023/04/09 08:36:30;;;;;;;42.72;30.13;;;9.20;77.20;;;;;;5060659;28;20043;-79
2023/04/09 08:38:56;;;;;;;38.60;28.17;;;9.20;77.40;;;;;;5049535;28;20103;-80
2023/04/09 08:41:23;;;;;;;40.63;28.77;;;9.20;77.20;;;;;;5031417;28;21455;-79
2023/04/09 08:43:51;;;;;;;41.17;29.23;;;9.20;77.10;;;;;;5031535;28;20115;-79
2023/04/09 08:46:18;;;;;;;43.92;30.67;;;9.20;77.20;;;;;;5024395;28;20044;-79
2023/04/09 08:48:45;;;;;;;41.22;29.23;;;9.20;77.20;;;;;;5058462;28;20471;-79
2023/04/09 08:51:15;;;;;;;40.58;28.75;;;9.20;77.30;;;;;;5042871;28;20107;-79
2023/04/09 08:53:46;;;;;;;38.55;28.65;;;9.20;77.20;;;;;;5057974;28;20403;-79
2023/04/09 08:56:13;;;;;;;42.10;29.75;;;9.20;77.20;;;;;;5057481;28;20044;-79
2023/04/09 08:58:45;;;;;;;40.15;27.95;;;9.30;77.20;;;;;;5032550;28;20442;-80
2023/04/09 09:01:28;;;;;;;36.72;27.08;;;9.30;77.30;;;;;;5041661;28;20045;-79
2023/04/09 09:04:05;;;;;;;37.50;26.83;;;9.40;77.30;;;;;;5046977;28;20040;-79
2023/04/09 09:06:32;;;;;;;34.47;25.30;;;9.50;77.10;;;;;;5042391;28;20052;-79
2023/04/09 09:09:05;;;;;;;36.95;26.92;;;9.50;76.90;;;;;;5049175;28;20557;-79
2023/04/09 09:11:45;;;;;;;34.85;26.45;;;9.60;76.70;;;;;;5058153;28;20071;-78
2023/04/09 09:14:17;;;;;;;37.53;27.10;;;9.70;76.60;;;;;;5056759;28;20048;-79
2023/04/09 09:17:04;;;;;;;35.78;26.05;;;9.80;76.60;;;;;;5059514;28;20071;-79
2023/04/09 09:19:35;;;;;;;33.83;25.92;;;9.90;76.50;;;;;;5061448;28;20046;-80
2023/04/09 09:22:06;;;;;;;32.85;25.05;;;10.00;75.90;;;;;;5076112;28;20067;-80
2023/04/09 09:24:33;;;;;;;35.75;25.98;;;10.10;75.30;;;;;;5057374;28;20103;-79
2023/04/09 09:27:00;;;;;;;34.60;26.52;;;10.20;74.90;;;;;;5056446;28;20044;-79
2023/04/09 09:29:26;;;;;;;31.40;23.75;;;10.30;74.70;;;;;;5074790;28;20051;-79
2023/04/09 09:31:53;;;;;;;33.45;25.20;;;10.30;74.50;;;;;;5075661;28;20036;-79
2023/04/09 09:34:21;;;;;;;32.38;25.17;;;10.40;74.60;;;;;;5074308;28;20033;-79
2023/04/09 09:36:47;;;;;;;34.83;25.42;;;10.50;74.90;;;;;;5060016;28;20048;-79
2023/04/09 09:39:16;;;;;;;34.13;25.60;;;10.50;74.60;;;;;;5074499;28;20047;-79
2023/04/09 09:41:42;;;;;;;31.33;24.23;;;10.60;74.60;;;;;;5057116;28;20089;-79
2023/04/09 09:44:10;;;;;;;34.47;27.15;;;10.70;74.50;;;;;;5030564;28;20464;-79
2023/04/09 09:46:41;;;;;;;33.97;24.55;;;10.80;74.20;;;;;;5031546;28;20047;-79
2023/04/09 09:49:08;;;;;;;34.30;24.88;;;10.90;73.90;;;;;;5056864;28;20050;-79
2023/04/09 09:51:38;;;;;;;32.88;25.95;;;11.00;73.60;;;;;;5075070;28;20044;-79
2023/04/09 09:54:06;;;;;;;33.17;25.30;;;11.10;73.50;;;;;;5059493;28;20048;-79
2023/04/09 09:56:38;;;;;;;34.40;26.75;;;11.20;73.30;;;;;;5056003;28;20041;-79
2023/04/09 09:59:15;;;;;;;33.50;25.80;;;11.40;72.70;;;;;;5056892;28;20068;-79
2023/04/09 10:01:41;;;;;;;34.25;25.55;;;11.50;71.90;;;;;;5076874;28;20047;-80
2023/04/09 10:04:12;;;;;;;32.20;24.13;;;11.50;71.70;;;;;;5077864;28;20072;-78
2023/04/09 10:06:41;;;;;;;32.10;24.65;;;11.70;71.70;;;;;;5075768;28;20087;-78
2023/04/09 10:09:08;;;;;;;33.25;25.40;;;11.90;71.60;;;;;;5060343;28;20040;-78
2023/04/09 10:11:36;;;;;;;32.33;24.55;;;12.00;70.90;;;;;;5057409;28;20076;-81
2023/04/09 10:14:03;;;;;;;30.60;22.88;;;12.10;70.90;;;;;;5041496;28;20102;-78
2023/04/09 10:16:29;;;;;;;25.85;21.27;;;12.20;70.60;;;;;;5078813;28;20462;-78
2023/04/09 10:18:57;;;;;;;29.40;23.20;;;12.40;70.00;;;;;;5076689;28;20048;-78
2023/04/09 10:21:42;;;;;;;32.50;24.80;;;12.60;68.50;;;;;;5041696;28;20039;-78
2023/04/09 10:24:10;;;;;;;33.72;24.08;;;12.60;67.00;;;;;;5098489;28;20040;-79
2023/04/09 10:26:40;;;;;;;28.55;22.63;;;12.70;67.50;;;;;;5081730;28;20032;-78
2023/04/09 10:29:14;;;;;;;29.38;23.38;;;12.80;65.90;;;;;;5098579;28;20126;-77
2023/04/09 10:31:53;;;;;;;28.80;22.63;;;12.80;65.40;;;;;;5081411;28;20082;-77
2023/04/09 10:34:22;;;;;;;24.80;21.23;;;12.90;65.90;;;;;;5081229;28;20054;-77
2023/04/09 10:36:56;;;;;;;25.80;20.40;;;12.90;65.90;;;;;;5083899;28;20047;-78
2023/04/09 10:39:38;;;;;;;27.52;21.35;;;13.00;65.10;;;;;;5041232;28;20045;-77
2023/04/09 10:42:08;;;;;;;27.08;21.38;;;13.10;64.40;;;;;;5070752;28;20070;-77
2023/04/09 10:44:36;;;;;;;26.65;21.08;;;13.10;63.00;;;;;;5094870;28;20092;-78
2023/04/09 10:47:02;;;;;;;28.13;21.88;;;13.10;63.50;;;;;;5027520;28;20047;-78
2023/04/09 10:49:43;;;;;;;29.73;23.38;;;13.20;63.60;;;;;;5036658;28;20043;-78
2023/04/09 10:52:12;;;;;;;27.60;21.35;;;13.30;63.10;;;;;;5064788;28;20101;-78
2023/04/09 10:54:45;;;;;;;26.58;21.48;;;13.30;62.80;;;;;;5097842;28;20051;-78
2023/04/09 10:57:15;;;;;;;27.98;21.65;;;13.30;62.40;;;;;;5073362;28;20036;-78
2023/04/09 10:59:54;;;;;;;27.08;21.92;;;13.30;63.20;;;;;;5041029;28;20048;-78
2023/04/09 11:02:38;;;;;;;32.90;24.15;;;13.40;63.70;;;;;;5025052;28;20059;-78
2023/04/09 11:05:23;;;;;;;28.92;22.75;;;13.50;63.30;;;;;;5057494;28;20037;-78
2023/04/09 11:08:12;;;;;;;30.45;21.75;;;13.60;63.40;;;;;;5049053;28;20063;-78
2023/04/09 11:10:43;;;;;;;27.70;22.67;;;13.70;64.20;;;;;;5068622;28;20123;-77
2023/04/09 11:13:17;;;;;;;27.13;21.73;;;13.80;64.40;;;;;;5047976;28;20043;-78
2023/04/09 11:15:44;;;;;;;26.17;19.42;;;13.90;63.10;;;;;;5068991;28;20050;-78
2023/04/09 11:18:24;;;;;;;25.13;19.75;;;14.00;62.80;;;;;;5081576;28;20550;-79
2023/04/09 11:20:58;;;;;;;24.10;19.30;;;14.20;61.90;;;;;;5051372;28;20043;-78
2023/04/09 11:23:24;;;;;;;24.70;19.95;;;14.30;60.90;;;;;;5050863;28;20039;-79
2023/04/09 11:25:51;;;;;;;22.60;18.02;;;14.40;60.60;;;;;;5051851;28;20040;-78
2023/04/09 11:28:18;;;;;;;23.58;19.52;;;14.40;59.70;;;;;;5033610;28;20498;-78
2023/04/09 11:30:45;;;;;;;25.75;20.10;;;14.50;58.90;;;;;;5051450;28;20119;-78
2023/04/09 11:33:11;;;;;;;25.38;19.17;;;14.50;58.80;;;;;;5049626;28;20032;-78
2023/04/09 11:35:37;;;;;;;24.95;20.10;;;14.60;59.00;;;;;;5031104;28;20109;-78
2023/04/09 11:38:10;;;;;;;25.95;21.15;;;14.70;58.30;;;;;;5033047;28;20077;-78
2023/04/09 11:40:44;;;;;;;24.02;19.92;;;14.70;57.00;;;;;;5033816;28;20086;-78
2023/04/09 11:43:10;;;;;;;25.48;20.73;;;14.70;56.60;;;;;;5036334;28;20052;-77
2023/04/09 11:45:37;;;;;;;25.02;20.30;;;14.70;56.80;;;;;;5052229;28;20490;-78
2023/04/09 11:48:03;;;;;;;25.40;19.40;;;14.60;55.70;;;;;;5050150;28;20048;-78
2023/04/09 11:50:29;;;;;;;23.13;19.20;;;14.60;55.90;;;;;;5070331;28;20048;-79
2023/04/09 11:52:55;;;;;;;22.02;19.40;;;14.70;56.40;;;;;;5019729;28;20046;-78
2023/04/09 11:55:28;;;;;;;24.33;20.08;;;14.70;56.50;;;;;;5031491;28;20392;-78
2023/04/09 11:58:02;;;;;;;24.20;20.00;;;14.80;57.10;;;;;;5063200;28;20090;-78
2023/04/09 12:00:28;;;;;;;23.98;20.88;;;14.90;57.50;;;;;;5046387;28;20032;-77
2023/04/09 12:03:02;;;;;;;28.25;18.08;;;15.00;58.10;;;;;;5027860;28;20037;-78
2023/04/09 12:05:32;;;;;;;24.23;19.17;;;15.20;57.50;;;;;;5069783;28;20032;-78
2023/04/09 12:08:06;;;;;;;28.55;21.80;;;15.30;56.30;;;;;;5067763;28;20055;-78
2023/04/09 12:10:36;;;;;;;23.02;19.17;;;15.30;55.30;;;;;;5052157;28;20059;-78
2023/04/09 12:13:03;;;;;;;23.90;20.02;;;15.30;54.70;;;;;;5050819;28;20088;-78
2023/04/09 12:15:37;;;;;;;22.38;17.85;;;15.30;55.20;;;;;;5067768;28;20052;-78
2023/04/09 12:18:03;;;;;;;22.23;17.75;;;15.30;55.50;;;;;;5046826;28;20086;-78
2023/04/09 12:20:34;;;;;;;22.00;18.17;;;15.30;55.40;;;;;;5068136;28;20043;-78
2023/04/09 12:23:02;;;;;;;20.55;16.98;;;15.40;55.30;;;;;;5051972;28;20391;-78
2023/04/09 12:25:34;;;;;;;22.88;18.98;;;15.50;55.60;;;;;;5047965;28;20383;-78
2023/04/09 12:28:00;;;;;;;22.92;19.15;;;15.60;55.80;;;;;;5051030;28;20079;-78
2023/04/09 12:30:26;;;;;;;20.38;17.33;;;15.70;55.10;;;;;;5035249;28;21326;-78
2023/04/09 12:32:53;;;;;;;21.65;17.25;;;15.70;54.20;;;;;;5051092;28;20044;-78
2023/04/09 12:35:19;;;;;;;21.05;18.27;;;15.80;53.40;;;;;;5051231;28;20183;-78
2023/04/09 12:37:46;;;;;;;21.52;17.98;;;15.80;53.20;;;;;;5050510;28;20036;-77